sensor_id;sensor_type;location;lat;lon;timestamp;P1;durP1;ratioP1;P2;durP2;ratioP2
51491;SDS011;37569;50.548;8.778;2023-07-13T00:03:47;3.6;;;1.8;;
51491;SDS011;37569;50.548;8.778;2023-07-13T00:08:48;3.4;;;2.1;;
51491;SDS011;37569;50.548;8.778;2023-07-13T00:13:49;3.2;;;1.8;;
51491;SDS011;37569;50.548;8.778;2023-07-13T00:18:50;3.5;;;1.7;;
51491;SDS011;37569;50.548;8.778;2023-07-13T00:23:50;3.6;;;1.7;;
51491;SDS011;37569;50.548;8.778;2023-07-13T00:28:51;4.5;;;1.6;;
51491;SDS011;37569;50.548;8.778;2023-07-13T00:33:52;3.6;;;1.6;;
51491;SDS011;37569;50.548;8.778;2023-07-13T00:38:53;3.8;;;1.8;;
51491;SDS011;37569;50.548;8.778;2023-07-13T00:43:53;2.2;;;1.5;;
51491;SDS011;37569;50.548;8.778;2023-07-13T00:48:55;5.3;;;1.7;;
51491;SDS011;37569;50.548;8.778;2023-07-13T00:53:56;4.2;;;1.8;;
51491;SDS011;37569;50.548;8.778;2023-07-13T00:58:56;4;;;1.6;;
51491;SDS011;37569;50.548;8.778;2023-07-13T01:03:57;3.4;;;1.6;;
51491;SDS011;37569;50.548;8.778;2023-07-13T01:08:57;4.8;;;1.8;;
51491;SDS011;37569;50.548;8.778;2023-07-13T01:13:58;3.5;;;1.5;;
51491;SDS011;37569;50.548;8.778;2023-07-13T01:18:59;3.3;;;1.5;;
51491;SDS011;37569;50.548;8.778;2023-07-13T01:24:00;3.7;;;1.8;;
51491;SDS011;37569;50.548;8.778;2023-07-13T01:29:00;4.4;;;1.6;;
51491;SDS011;37569;50.548;8.778;2023-07-13T01:34:01;5.4;;;1.8;;
51491;SDS011;37569;50.548;8.778;2023-07-13T01:39:02;5.1;;;1.7;;
51491;SDS011;37569;50.548;8.778;2023-07-13T01:44:03;4.3;;;1.6;;
51491;SDS011;37569;50.548;8.778;2023-07-13T01:49:03;4.8;;;1.6;;
51491;SDS011;37569;50.548;8.778;2023-07-13T01:54:04;5.2;;;1.6;;
51491;SDS011;37569;50.548;8.778;2023-07-13T01:59:05;3.3;;;1.4;;
51491;SDS011;37569;50.548;8.778;2023-07-13T02:04:06;6.5;;;1.7;;
51491;SDS011;37569;50.548;8.778;2023-07-13T02:09:06;3.8;;;1.6;;
51491;SDS011;37569;50.548;8.778;2023-07-13T02:14:07;4.7;;;1.6;;
51491;SDS011;37569;50.548;8.778;2023-07-13T02:19:08;4.5;;;1.6;;
51491;SDS011;37569;50.548;8.778;2023-07-13T02:24:08;4;;;1.8;;
51491;SDS011;37569;50.548;8.778;2023-07-13T02:29:09;4.1;;;1.4;;
51491;SDS011;37569;50.548;8.778;2023-07-13T02:34:10;6.4;;;1.7;;
51491;SDS011;37569;50.548;8.778;2023-07-13T02:39:11;4.1;;;1.6;;
51491;SDS011;37569;50.548;8.778;2023-07-13T02:44:12;4.2;;;1.6;;
51491;SDS011;37569;50.548;8.778;2023-07-13T02:49:12;2.9;;;1.3;;
51491;SDS011;37569;50.548;8.778;2023-07-13T02:54:13;3.3;;;1.6;;
51491;SDS011;37569;50.548;8.778;2023-07-13T02:59:13;3.4;;;1.6;;
51491;SDS011;37569;50.548;8.778;2023-07-13T03:04:14;5.3;;;1.7;;
51491;SDS011;37569;50.548;8.778;2023-07-13T03:09:15;5.9;;;2;;
51491;SDS011;37569;50.548;8.778;2023-07-13T03:14:15;4.4;;;1.6;;
51491;SDS011;37569;50.548;8.778;2023-07-13T03:19:16;6.5;;;1.7;;
51491;SDS011;37569;50.548;8.778;2023-07-13T03:24:17;4.5;;;1.6;;
51491;SDS011;37569;50.548;8.778;2023-07-13T03:29:17;4.6;;;1.7;;
51491;SDS011;37569;50.548;8.778;2023-07-13T03:34:18;5.5;;;2;;
51491;SDS011;37569;50.548;8.778;2023-07-13T03:39:19;4.6;;;1.8;;
51491;SDS011;37569;50.548;8.778;2023-07-13T03:44:19;3.6;;;1.8;;
51491;SDS011;37569;50.548;8.778;2023-07-13T03:49:20;4.5;;;1.7;;
51491;SDS011;37569;50.548;8.778;2023-07-13T03:54:21;2.5;;;1.7;;
51491;SDS011;37569;50.548;8.778;2023-07-13T03:59:22;3.1;;;1.5;;
51491;SDS011;37569;50.548;8.778;2023-07-13T04:04:22;5.8;;;1.8;;
51491;SDS011;37569;50.548;8.778;2023-07-13T04:09:23;4.1;;;1.7;;
51491;SDS011;37569;50.548;8.778;2023-07-13T04:14:24;3.9;;;1.6;;
51491;SDS011;37569;50.548;8.778;2023-07-13T04:19:24;5.8;;;1.7;;
51491;SDS011;37569;50.548;8.778;2023-07-13T04:24:25;4.5;;;1.7;;
51491;SDS011;37569;50.548;8.778;2023-07-13T04:29:26;4.9;;;1.7;;
51491;SDS011;37569;50.548;8.778;2023-07-13T04:34:27;4.9;;;1.8;;
51491;SDS011;37569;50.548;8.778;2023-07-13T04:39:28;3.8;;;1.5;;
51491;SDS011;37569;50.548;8.778;2023-07-13T04:44:28;3.8;;;1.7;;
51491;SDS011;37569;50.548;8.778;2023-07-13T04:49:29;5.2;;;1.8;;
51491;SDS011;37569;50.548;8.778;2023-07-13T04:54:30;4.9;;;1.6;;
51491;SDS011;37569;50.548;8.778;2023-07-13T04:59:31;4.5;;;1.6;;
51491;SDS011;37569;50.548;8.778;2023-07-13T05:04:31;5;;;1.5;;
51491;SDS011;37569;50.548;8.778;2023-07-13T05:09:32;3;;;1.6;;
51491;SDS011;37569;50.548;8.778;2023-07-13T05:14:33;4.8;;;1.9;;
51491;SDS011;37569;50.548;8.778;2023-07-13T05:19:34;4.1;;;1.6;;
51491;SDS011;37569;50.548;8.778;2023-07-13T05:24:35;6.4;;;1.6;;
51491;SDS011;37569;50.548;8.778;2023-07-13T05:29:35;5.3;;;1.7;;
51491;SDS011;37569;50.548;8.778;2023-07-13T05:34:36;4.7;;;1.8;;
51491;SDS011;37569;50.548;8.778;2023-07-13T05:39:37;3.2;;;1.4;;
51491;SDS011;37569;50.548;8.778;2023-07-13T05:44:38;5.1;;;1.5;;
51491;SDS011;37569;50.548;8.778;2023-07-13T05:49:39;3.7;;;1.5;;
51491;SDS011;37569;50.548;8.778;2023-07-13T05:54:40;3.8;;;1.6;;
51491;SDS011;37569;50.548;8.778;2023-07-13T05:59:41;5;;;1.5;;
51491;SDS011;37569;50.548;8.778;2023-07-13T06:04:42;4.9;;;1.4;;
51491;SDS011;37569;50.548;8.778;2023-07-13T06:09:43;3;;;1.4;;
51491;SDS011;37569;50.548;8.778;2023-07-13T06:14:44;4.1;;;1.6;;
51491;SDS011;37569;50.548;8.778;2023-07-13T06:19:45;3.3;;;1.5;;
51491;SDS011;37569;50.548;8.778;2023-07-13T06:24:46;3.2;;;1.3;;
51491;SDS011;37569;50.548;8.778;2023-07-13T06:29:47;3.9;;;1.4;;
51491;SDS011;37569;50.548;8.778;2023-07-13T06:34:49;3.7;;;1.5;;
51491;SDS011;37569;50.548;8.778;2023-07-13T06:39:50;4;;;1.6;;
51491;SDS011;37569;50.548;8.778;2023-07-13T06:44:51;2.6;;;1.4;;
51491;SDS011;37569;50.548;8.778;2023-07-13T06:49:52;2.8;;;1.3;;
51491;SDS011;37569;50.548;8.778;2023-07-13T06:54:53;4.8;;;1.5;;
51491;SDS011;37569;50.548;8.778;2023-07-13T06:59:54;3.7;;;1.4;;
51491;SDS011;37569;50.548;8.778;2023-07-13T07:04:55;3;;;1.4;;
51491;SDS011;37569;50.548;8.778;2023-07-13T07:09:57;4.6;;;1.3;;
51491;SDS011;37569;50.548;8.778;2023-07-13T07:14:58;2.9;;;1.4;;
51491;SDS011;37569;50.548;8.778;2023-07-13T07:19:59;3.4;;;1.3;;
51491;SDS011;37569;50.548;8.778;2023-07-13T07:25:00;3.7;;;1.4;;
51491;SDS011;37569;50.548;8.778;2023-07-13T07:30:01;4.1;;;1.3;;
51491;SDS011;37569;50.548;8.778;2023-07-13T07:35:02;3.1;;;1.3;;
51491;SDS011;37569;50.548;8.778;2023-07-13T07:40:04;2.6;;;1.3;;
51491;SDS011;37569;50.548;8.778;2023-07-13T07:45:05;2.5;;;1.2;;
51491;SDS011;37569;50.548;8.778;2023-07-13T07:50:06;2.9;;;1.2;;
51491;SDS011;37569;50.548;8.778;2023-07-13T07:55:07;4.7;;;1.2;;
51491;SDS011;37569;50.548;8.778;2023-07-13T08:00:09;2.2;;;1.3;;
51491;SDS011;37569;50.548;8.778;2023-07-13T08:05:10;3.7;;;1.3;;
51491;SDS011;37569;50.548;8.778;2023-07-13T08:10:11;2.6;;;1.4;;
51491;SDS011;37569;50.548;8.778;2023-07-13T08:15:13;2.1;;;1.3;;
51491;SDS011;37569;50.548;8.778;2023-07-13T08:20:13;2.9;;;1.3;;
51491;SDS011;37569;50.548;8.778;2023-07-13T08:25:14;2.7;;;1.2;;
51491;SDS011;37569;50.548;8.778;2023-07-13T08:30:15;3.2;;;1.5;;
51491;SDS011;37569;50.548;8.778;2023-07-13T08:35:16;3.6;;;1.4;;
51491;SDS011;37569;50.548;8.778;2023-07-13T08:40:18;2.4;;;1.2;;
51491;SDS011;37569;50.548;8.778;2023-07-13T08:45:19;2.1;;;1.1;;
51491;SDS011;37569;50.548;8.778;2023-07-13T08:50:21;2.3;;;1.3;;
51491;SDS011;37569;50.548;8.778;2023-07-13T08:55:21;3.1;;;1.3;;
51491;SDS011;37569;50.548;8.778;2023-07-13T09:00:23;1.9;;;1.2;;
51491;SDS011;37569;50.548;8.778;2023-07-13T09:05:25;2.5;;;1.1;;
51491;SDS011;37569;50.548;8.778;2023-07-13T09:10:26;2.4;;;1.1;;
51491;SDS011;37569;50.548;8.778;2023-07-13T09:15:26;3.1;;;1.1;;
51491;SDS011;37569;50.548;8.778;2023-07-13T09:20:28;2.4;;;1;;
51491;SDS011;37569;50.548;8.778;2023-07-13T09:25:29;2.6;;;0.9;;
51491;SDS011;37569;50.548;8.778;2023-07-13T09:30:31;2.2;;;1;;
51491;SDS011;37569;50.548;8.778;2023-07-13T09:35:30;1.5;;;1;;
51491;SDS011;37569;50.548;8.778;2023-07-13T09:40:36;2.2;;;1.1;;
51491;SDS011;37569;50.548;8.778;2023-07-13T09:45:33;2.1;;;1.1;;
51491;SDS011;37569;50.548;8.778;2023-07-13T09:50:34;2.3;;;1;;
51491;SDS011;37569;50.548;8.778;2023-07-13T09:55:36;2;;;1;;
51491;SDS011;37569;50.548;8.778;2023-07-13T10:00:36;1.5;;;1;;
51491;SDS011;37569;50.548;8.778;2023-07-13T10:05:38;2.6;;;1.2;;
51491;SDS011;37569;50.548;8.778;2023-07-13T10:10:39;2.3;;;1.1;;
51491;SDS011;37569;50.548;8.778;2023-07-13T10:15:40;2.1;;;1;;
51491;SDS011;37569;50.548;8.778;2023-07-13T10:20:41;2.9;;;1.2;;
51491;SDS011;37569;50.548;8.778;2023-07-13T10:25:43;3.1;;;1.2;;
51491;SDS011;37569;50.548;8.778;2023-07-13T10:30:44;1.9;;;1;;
51491;SDS011;37569;50.548;8.778;2023-07-13T10:35:45;1.7;;;1;;
51491;SDS011;37569;50.548;8.778;2023-07-13T10:40:48;2.3;;;1.1;;
51491;SDS011;37569;50.548;8.778;2023-07-13T10:45:48;2.7;;;1.1;;
51491;SDS011;37569;50.548;8.778;2023-07-13T10:50:49;2.2;;;1.1;;
51491;SDS011;37569;50.548;8.778;2023-07-13T10:55:58;2;;;1.2;;
51491;SDS011;37569;50.548;8.778;2023-07-13T11:00:53;2.2;;;1.2;;
51491;SDS011;37569;50.548;8.778;2023-07-13T11:06:03;2.2;;;1.2;;
51491;SDS011;37569;50.548;8.778;2023-07-13T11:10:54;2.5;;;1.4;;
51491;SDS011;37569;50.548;8.778;2023-07-13T11:15:55;2.3;;;1.3;;
51491;SDS011;37569;50.548;8.778;2023-07-13T11:21:12;3;;;1.4;;
51491;SDS011;37569;50.548;8.778;2023-07-13T11:25:57;3.2;;;1.5;;
51491;SDS011;37569;50.548;8.778;2023-07-13T11:31:00;3.4;;;1.3;;
51491;SDS011;37569;50.548;8.778;2023-07-13T11:36:00;2.8;;;1.3;;
51491;SDS011;37569;50.548;8.778;2023-07-13T11:41:02;2.8;;;1.2;;
51491;SDS011;37569;50.548;8.778;2023-07-13T11:46:23;3.3;;;1.2;;
51491;SDS011;37569;50.548;8.778;2023-07-13T11:51:04;3.3;;;1.2;;
51491;SDS011;37569;50.548;8.778;2023-07-13T11:56:04;3.8;;;1.4;;
51491;SDS011;37569;50.548;8.778;2023-07-13T12:01:06;2.7;;;1.6;;
51491;SDS011;37569;50.548;8.778;2023-07-13T12:06:19;2.6;;;1.2;;
51491;SDS011;37569;50.548;8.778;2023-07-13T12:11:13;3.2;;;1.4;;
51491;SDS011;37569;50.548;8.778;2023-07-13T12:16:11;2;;;1.2;;
51491;SDS011;37569;50.548;8.778;2023-07-13T12:21:12;2.4;;;1.2;;
51491;SDS011;37569;50.548;8.778;2023-07-13T12:26:12;2.4;;;1;;
51491;SDS011;37569;50.548;8.778;2023-07-13T12:31:22;2.2;;;1.3;;
51491;SDS011;37569;50.548;8.778;2023-07-13T12:36:14;1.8;;;1.2;;
51491;SDS011;37569;50.548;8.778;2023-07-13T12:41:15;2.1;;;1.3;;
51491;SDS011;37569;50.548;8.778;2023-07-13T12:46:17;2.1;;;1.2;;
51491;SDS011;37569;50.548;8.778;2023-07-13T12:51:20;4.9;;;1.3;;
51491;SDS011;37569;50.548;8.778;2023-07-13T12:56:19;2.5;;;1.3;;
51491;SDS011;37569;50.548;8.778;2023-07-13T13:01:20;2;;;1.4;;
51491;SDS011;37569;50.548;8.778;2023-07-13T13:06:22;2.5;;;1.2;;
51491;SDS011;37569;50.548;8.778;2023-07-13T13:11:22;2.9;;;1.3;;
51491;SDS011;37569;50.548;8.778;2023-07-13T13:16:26;2.8;;;1.3;;
51491;SDS011;37569;50.548;8.778;2023-07-13T13:21:25;3.5;;;1.6;;
51491;SDS011;37569;50.548;8.778;2023-07-13T13:26:26;4.2;;;1.3;;
51491;SDS011;37569;50.548;8.778;2023-07-13T13:31:27;3;;;1.2;;
51491;SDS011;37569;50.548;8.778;2023-07-13T13:36:28;2.6;;;1.3;;
51491;SDS011;37569;50.548;8.778;2023-07-13T13:41:30;1.8;;;1.2;;
51491;SDS011;37569;50.548;8.778;2023-07-13T13:46:31;3.7;;;1.3;;
51491;SDS011;37569;50.548;8.778;2023-07-13T13:51:32;4.5;;;1.5;;
51491;SDS011;37569;50.548;8.778;2023-07-13T13:56:33;4;;;1.4;;
51491;SDS011;37569;50.548;8.778;2023-07-13T14:01:34;3.2;;;1.5;;
51491;SDS011;37569;50.548;8.778;2023-07-13T14:06:35;2.4;;;1.4;;
51491;SDS011;37569;50.548;8.778;2023-07-13T14:11:37;3.1;;;1.4;;
51491;SDS011;37569;50.548;8.778;2023-07-13T14:16:38;2.6;;;1.6;;
51491;SDS011;37569;50.548;8.778;2023-07-13T14:21:39;2.2;;;1.4;;
51491;SDS011;37569;50.548;8.778;2023-07-13T14:26:40;4;;;1.5;;
51491;SDS011;37569;50.548;8.778;2023-07-13T14:31:41;2.8;;;1.6;;
51491;SDS011;37569;50.548;8.778;2023-07-13T14:36:43;4.8;;;1.6;;
51491;SDS011;37569;50.548;8.778;2023-07-13T14:41:43;2.6;;;1.5;;
51491;SDS011;37569;50.548;8.778;2023-07-13T14:46:45;2.3;;;1.4;;
51491;SDS011;37569;50.548;8.778;2023-07-13T14:51:46;2.9;;;1.4;;
51491;SDS011;37569;50.548;8.778;2023-07-13T14:56:47;4.5;;;2.2;;
51491;SDS011;37569;50.548;8.778;2023-07-13T15:01:48;2.7;;;1.6;;
51491;SDS011;37569;50.548;8.778;2023-07-13T15:06:53;3.5;;;1.5;;
51491;SDS011;37569;50.548;8.778;2023-07-13T15:11:50;2.3;;;1.4;;
51491;SDS011;37569;50.548;8.778;2023-07-13T15:16:52;1.8;;;1.3;;
51491;SDS011;37569;50.548;8.778;2023-07-13T15:21:52;3.1;;;1.6;;
51491;SDS011;37569;50.548;8.778;2023-07-13T15:26:53;3.1;;;1.4;;
51491;SDS011;37569;50.548;8.778;2023-07-13T15:31:55;3.1;;;1.4;;
51491;SDS011;37569;50.548;8.778;2023-07-13T15:36:56;3.3;;;1.5;;
51491;SDS011;37569;50.548;8.778;2023-07-13T15:41:57;3.3;;;1.5;;
51491;SDS011;37569;50.548;8.778;2023-07-13T15:46:58;3.8;;;1.4;;
51491;SDS011;37569;50.548;8.778;2023-07-13T15:51:59;2.2;;;1.4;;
51491;SDS011;37569;50.548;8.778;2023-07-13T15:57:00;2.8;;;1.5;;
51491;SDS011;37569;50.548;8.778;2023-07-13T16:02:03;2.3;;;1.4;;
51491;SDS011;37569;50.548;8.778;2023-07-13T16:07:02;2.7;;;1.4;;
51491;SDS011;37569;50.548;8.778;2023-07-13T16:12:06;2.9;;;1.4;;
51491;SDS011;37569;50.548;8.778;2023-07-13T16:17:04;2.7;;;1.4;;
51491;SDS011;37569;50.548;8.778;2023-07-13T16:22:08;5.3;;;1.5;;
51491;SDS011;37569;50.548;8.778;2023-07-13T16:27:07;2.1;;;1.3;;
51491;SDS011;37569;50.548;8.778;2023-07-13T16:32:09;2.3;;;1.2;;
51491;SDS011;37569;50.548;8.778;2023-07-13T16:37:11;3.1;;;1.5;;
51491;SDS011;37569;50.548;8.778;2023-07-13T16:42:10;3.4;;;1.7;;
51491;SDS011;37569;50.548;8.778;2023-07-13T16:47:11;2.7;;;1.5;;
51491;SDS011;37569;50.548;8.778;2023-07-13T16:52:13;3.4;;;1.6;;
51491;SDS011;37569;50.548;8.778;2023-07-13T16:57:14;3.6;;;1.5;;
51491;SDS011;37569;50.548;8.778;2023-07-13T17:02:28;2.6;;;1.5;;
51491;SDS011;37569;50.548;8.778;2023-07-13T17:07:15;2.4;;;1.6;;
51491;SDS011;37569;50.548;8.778;2023-07-13T17:12:16;2.9;;;1.6;;
51491;SDS011;37569;50.548;8.778;2023-07-13T17:17:18;4.5;;;1.8;;
51491;SDS011;37569;50.548;8.778;2023-07-13T17:22:18;4.3;;;1.7;;
51491;SDS011;37569;50.548;8.778;2023-07-13T17:27:19;2.4;;;1.5;;
51491;SDS011;37569;50.548;8.778;2023-07-13T17:32:20;2.4;;;1.5;;
51491;SDS011;37569;50.548;8.778;2023-07-13T17:37:21;2.1;;;1.2;;
51491;SDS011;37569;50.548;8.778;2023-07-13T17:42:23;3;;;1.4;;
51491;SDS011;37569;50.548;8.778;2023-07-13T17:47:24;2.1;;;1.4;;
51491;SDS011;37569;50.548;8.778;2023-07-13T17:52:24;3.3;;;1.4;;
51491;SDS011;37569;50.548;8.778;2023-07-13T17:57:26;3.9;;;1.5;;
51491;SDS011;37569;50.548;8.778;2023-07-13T18:02:27;4.4;;;1.5;;
51491;SDS011;37569;50.548;8.778;2023-07-13T18:07:28;3.2;;;1.4;;
51491;SDS011;37569;50.548;8.778;2023-07-13T18:12:29;3.3;;;1.5;;
51491;SDS011;37569;50.548;8.778;2023-07-13T18:17:30;2.9;;;1.4;;
51491;SDS011;37569;50.548;8.778;2023-07-13T18:22:31;2.3;;;1.5;;
51491;SDS011;37569;50.548;8.778;2023-07-13T18:27:32;4;;;1.4;;
51491;SDS011;37569;50.548;8.778;2023-07-13T18:32:33;1.8;;;1.4;;
51491;SDS011;37569;50.548;8.778;2023-07-13T18:37:33;4.1;;;1.3;;
51491;SDS011;37569;50.548;8.778;2023-07-13T18:42:34;2.2;;;1.5;;
51491;SDS011;37569;50.548;8.778;2023-07-13T18:47:35;2.5;;;1.4;;
51491;SDS011;37569;50.548;8.778;2023-07-13T18:52:36;3.6;;;1.5;;
51491;SDS011;37569;50.548;8.778;2023-07-13T18:57:37;2.5;;;1.5;;
51491;SDS011;37569;50.548;8.778;2023-07-13T19:02:38;3.4;;;1.6;;
51491;SDS011;37569;50.548;8.778;2023-07-13T19:07:39;3.3;;;1.6;;
51491;SDS011;37569;50.548;8.778;2023-07-13T19:12:42;3.1;;;1.6;;
51491;SDS011;37569;50.548;8.778;2023-07-13T19:17:41;3.1;;;1.5;;
51491;SDS011;37569;50.548;8.778;2023-07-13T19:22:42;3.1;;;1.4;;
51491;SDS011;37569;50.548;8.778;2023-07-13T19:27:43;3.2;;;1.5;;
51491;SDS011;37569;50.548;8.778;2023-07-13T19:32:44;3.6;;;1.4;;
51491;SDS011;37569;50.548;8.778;2023-07-13T19:37:45;4.2;;;1.6;;
51491;SDS011;37569;50.548;8.778;2023-07-13T19:42:46;2.8;;;1.6;;
51491;SDS011;37569;50.548;8.778;2023-07-13T19:47:46;4.8;;;1.5;;
51491;SDS011;37569;50.548;8.778;2023-07-13T19:52:48;2.9;;;1.4;;
51491;SDS011;37569;50.548;8.778;2023-07-13T19:57:48;2.3;;;1.5;;
51491;SDS011;37569;50.548;8.778;2023-07-13T20:02:49;2.6;;;1.6;;
51491;SDS011;37569;50.548;8.778;2023-07-13T20:07:51;3.2;;;1.5;;
51491;SDS011;37569;50.548;8.778;2023-07-13T20:12:51;3;;;1.4;;
51491;SDS011;37569;50.548;8.778;2023-07-13T20:17:52;3.1;;;1.4;;
51491;SDS011;37569;50.548;8.778;2023-07-13T20:22:52;2.2;;;1.4;;
51491;SDS011;37569;50.548;8.778;2023-07-13T20:27:54;2.7;;;1.5;;
51491;SDS011;37569;50.548;8.778;2023-07-13T20:32:54;3.2;;;1.4;;
51491;SDS011;37569;50.548;8.778;2023-07-13T20:37:55;3.7;;;1.4;;
51491;SDS011;37569;50.548;8.778;2023-07-13T20:42:56;3.7;;;1.8;;
51491;SDS011;37569;50.548;8.778;2023-07-13T20:47:57;3.8;;;2;;
51491;SDS011;37569;50.548;8.778;2023-07-13T20:52:58;2.2;;;1.5;;
51491;SDS011;37569;50.548;8.778;2023-07-13T20:57:58;4.2;;;2;;
51491;SDS011;37569;50.548;8.778;2023-07-13T21:03:00;3.3;;;2;;
51491;SDS011;37569;50.548;8.778;2023-07-13T21:08:00;2.6;;;1.7;;
51491;SDS011;37569;50.548;8.778;2023-07-13T21:13:01;4.3;;;2;;
51491;SDS011;37569;50.548;8.778;2023-07-13T21:18:02;3.4;;;2;;
51491;SDS011;37569;50.548;8.778;2023-07-13T21:23:03;2.9;;;1.8;;
51491;SDS011;37569;50.548;8.778;2023-07-13T21:28:03;3.3;;;2.2;;
51491;SDS011;37569;50.548;8.778;2023-07-13T21:33:04;5.1;;;2.2;;
51491;SDS011;37569;50.548;8.778;2023-07-13T21:38:08;4.9;;;2;;
51491;SDS011;37569;50.548;8.778;2023-07-13T21:43:08;4.1;;;2.3;;
51491;SDS011;37569;50.548;8.778;2023-07-13T21:48:07;5.3;;;2.3;;
51491;SDS011;37569;50.548;8.778;2023-07-13T21:53:16;4.2;;;1.8;;
51491;SDS011;37569;50.548;8.778;2023-07-13T21:58:12;3.4;;;2.1;;
51491;SDS011;37569;50.548;8.778;2023-07-13T22:03:13;4.3;;;2.1;;
51491;SDS011;37569;50.548;8.778;2023-07-13T22:08:09;4.4;;;2.4;;
51491;SDS011;37569;50.548;8.778;2023-07-13T22:13:11;3.6;;;2;;
51491;SDS011;37569;50.548;8.778;2023-07-13T22:18:13;4.8;;;2.2;;
51491;SDS011;37569;50.548;8.778;2023-07-13T22:23:15;4;;;2.4;;
51491;SDS011;37569;50.548;8.778;2023-07-13T22:28:13;3.9;;;2.2;;
51491;SDS011;37569;50.548;8.778;2023-07-13T22:33:14;3.1;;;2.1;;
51491;SDS011;37569;50.548;8.778;2023-07-13T22:38:15;3.2;;;2.2;;
51491;SDS011;37569;50.548;8.778;2023-07-13T22:43:16;5.1;;;2.3;;
51491;SDS011;37569;50.548;8.778;2023-07-13T22:48:16;3.8;;;2.3;;
51491;SDS011;37569;50.548;8.778;2023-07-13T22:53:19;3.3;;;2.2;;
51491;SDS011;37569;50.548;8.778;2023-07-13T22:58:17;4.7;;;2.4;;
51491;SDS011;37569;50.548;8.778;2023-07-13T23:03:18;3.7;;;2.3;;
51491;SDS011;37569;50.548;8.778;2023-07-13T23:08:19;4.8;;;2.2;;
51491;SDS011;37569;50.548;8.778;2023-07-13T23:13:21;4.2;;;2.2;;
51491;SDS011;37569;50.548;8.778;2023-07-13T23:18:20;4.2;;;2.5;;
51491;SDS011;37569;50.548;8.778;2023-07-13T23:23:21;5.7;;;2.4;;
51491;SDS011;37569;50.548;8.778;2023-07-13T23:28:22;4.4;;;2.4;;
51491;SDS011;37569;50.548;8.778;2023-07-13T23:33:24;5.1;;;2.6;;
51491;SDS011;37569;50.548;8.778;2023-07-13T23:38:24;4.5;;;2.4;;
51491;SDS011;37569;50.548;8.778;2023-07-13T23:43:24;4.2;;;2.3;;
51491;SDS011;37569;50.548;8.778;2023-07-13T23:48:25;4.2;;;2.4;;
51491;SDS011;37569;50.548;8.778;2023-07-13T23:53:26;3.9;;;2.3;;
51491;SDS011;37569;50.548;8.778;2023-07-13T23:58:26;5.1;;;2.7;;
